Time;durP1;ratioP1;P1;durP2;ratioP2;P2;SDS_P1;SDS_P2;PMS_P1;PMS_P2;Temp;Humidity;BMP_temperature;BMP_pressure;BME280_temperature;BME280_humidity;BME280_pressure;Samples;Min_cycle;Max_cycle;Signal;HPM_P1;HPM_P2
2021/11/13 00:09:33;;;;;;;99.97;27.00;;;3.30;99.90;;;;;;20692988;28;20041;-82
2021/11/13 00:19:34;;;;;;;83.50;27.27;;;3.20;99.90;;;;;;20688694;28;20128;-83
2021/11/13 00:29:36;;;;;;;78.72;27.33;;;3.30;99.90;;;;;;20686180;28;20034;-81
2021/11/13 00:39:37;;;;;;;85.95;27.65;;;3.30;99.90;;;;;;20678265;28;20068;-82
2021/11/13 00:49:38;;;;;;;76.55;26.65;;;3.30;99.90;;;;;;20696654;28;20356;-82
2021/11/13 00:59:39;;;;;;;74.10;27.27;;;3.30;99.90;;;;;;20697104;28;20126;-80
2021/11/13 01:09:40;;;;;;;66.82;26.42;;;3.20;99.90;;;;;;20687479;28;20030;-84
2021/11/13 01:19:43;;;;;;;59.25;24.05;;;3.10;99.90;;;;;;20689969;28;20092;-87
2021/11/13 01:29:44;;;;;;;66.10;25.67;;;3.10;99.90;;;;;;20699394;28;20121;-82
2021/11/13 01:39:46;;;;;;;70.22;25.83;;;3.20;99.90;;;;;;20685203;28;20035;-84
2021/11/13 01:49:47;;;;;;;76.88;27.00;;;3.20;99.90;;;;;;20714132;28;20038;-86
2021/11/13 01:59:50;;;;;;;65.00;25.63;;;3.20;99.90;;;;;;20725943;28;20559;-85
2021/11/13 02:09:51;;;;;;;69.13;26.75;;;3.20;99.90;;;;;;20726810;28;20113;-88
2021/11/13 02:19:52;;;;;;;71.40;27.30;;;3.20;99.90;;;;;;20743480;28;20026;-86
2021/11/13 02:29:53;;;;;;;92.35;30.45;;;3.30;99.90;;;;;;20723224;28;20040;-85
2021/11/13 02:39:54;;;;;;;;;;;3.50;99.90;;;;;;20721766;28;20034;-84
2021/11/13 02:49:55;;;;;;;75.47;26.60;;;3.60;99.90;;;;;;20752275;28;20000;-84
2021/11/13 02:59:56;;;;;;;;;;;3.60;99.90;;;;;;20732062;28;20030;-82
2021/11/13 03:09:56;;;;;;;87.60;30.40;;;3.50;99.90;;;;;;20730253;28;19917;-82
2021/11/13 03:19:57;;;;;;;;;;;3.50;99.90;;;;;;20730584;28;20034;-82
2021/11/13 03:29:58;;;;;;;75.80;29.33;;;3.50;99.90;;;;;;20729386;28;20303;-84
2021/11/13 03:39:59;;;;;;;83.75;27.83;;;3.30;99.90;;;;;;20712348;28;20038;-83
2021/11/13 03:50:00;;;;;;;64.75;25.55;;;3.40;99.90;;;;;;20727522;28;20080;-83
2021/11/13 04:00:02;;;;;;;;;;;3.50;99.90;;;;;;20711388;28;20080;-82
2021/11/13 04:10:14;;;;;;;41.10;14.73;;;3.30;99.90;;;;;;20743221;28;20005;-82
2021/11/13 04:20:20;;;;;;;54.83;21.13;;;3.20;99.90;;;;;;20710480;28;20034;-83
2021/11/13 04:30:21;;;;;;;46.58;20.25;;;3.20;99.90;;;;;;20726212;28;20038;-82
2021/11/13 04:40:23;;;;;;;;;;;3.40;99.90;;;;;;20709004;28;20194;-82
2021/11/13 04:50:26;;;;;;;40.83;17.65;;;3.40;99.90;;;;;;20725122;28;19975;-82
2021/11/13 05:00:29;;;;;;;37.53;16.90;;;3.50;99.90;;;;;;20709004;28;20038;-83
2021/11/13 05:10:30;;;;;;;42.40;17.45;;;3.60;99.90;;;;;;20708198;28;20034;-84
2021/11/13 05:20:30;;;;;;;;;;;3.50;99.90;;;;;;20724790;28;20041;-82
2021/11/13 05:30:31;;;;;;;43.17;17.95;;;3.60;99.90;;;;;;20738964;28;19915;-81
2021/11/13 05:40:32;;;;;;;;;;;3.40;99.90;;;;;;20738397;28;20034;-84
2021/11/13 05:50:33;;;;;;;53.20;19.77;;;3.40;99.90;;;;;;20737059;28;19913;-83
2021/11/13 06:00:35;;;;;;;41.58;17.85;;;3.40;99.90;;;;;;20737337;28;20030;-82
2021/11/13 06:10:37;;;;;;;59.65;19.05;;;3.30;99.90;;;;;;20720711;28;20046;-81
2021/11/13 06:20:38;;;;;;;48.38;18.85;;;3.20;99.90;;;;;;20719375;28;20120;-83
2021/11/13 06:30:39;;;;;;;37.95;16.17;;;3.30;99.90;;;;;;20718905;28;20038;-81
2021/11/13 06:40:40;;;;;;;;;;;3.30;99.90;;;;;;20734633;28;20037;-81
2021/11/13 06:50:41;;;;;;;32.72;13.70;;;3.30;99.90;;;;;;20766470;28;19913;-81
2021/11/13 07:00:42;;;;;;;29.95;13.93;;;3.30;99.90;;;;;;20731723;28;20080;-83
2021/11/13 07:10:43;;;;;;;29.17;13.60;;;3.30;99.90;;;;;;20729707;28;20038;-81
2021/11/13 07:20:49;;;;;;;;;;;3.40;99.90;;;;;;20715454;28;20057;-81
2021/11/13 07:30:50;;;;;;;26.67;12.55;;;3.50;99.90;;;;;;20730061;28;20051;-81
2021/11/13 07:40:51;;;;;;;;;;;3.60;99.90;;;;;;20713613;28;20058;-82
2021/11/13 07:50:52;;;;;;;27.73;13.50;;;3.60;99.90;;;;;;20744507;28;19914;-81
2021/11/13 08:00:53;;;;;;;23.42;12.27;;;3.80;99.90;;;;;;20747940;28;20104;-81
2021/11/13 08:10:54;;;;;;;;;;;4.10;99.90;;;;;;20713880;28;20040;-80
2021/11/13 08:20:56;;;;;;;31.35;13.43;;;4.20;99.90;;;;;;20745974;28;20399;-82
2021/11/13 08:30:57;;;;;;;23.27;12.57;;;4.50;99.90;;;;;;20712572;28;20033;-82
2021/11/13 08:40:58;;;;;;;;;;;4.70;99.90;;;;;;20712378;28;20049;-81
2021/11/13 08:50:59;;;;;;;30.50;12.70;;;4.90;99.90;;;;;;20860744;22;20019;-78
2021/11/13 09:01:04;;;;;;;27.27;13.15;;;5.10;99.90;;;;;;20980593;28;20060;-76
2021/11/13 09:11:07;;;;;;;26.13;12.90;;;5.20;99.90;;;;;;21003874;28;20482;-78
2021/11/13 09:21:09;;;;;;;27.40;13.75;;;5.20;99.90;;;;;;20985693;28;20028;-76
2021/11/13 09:31:11;;;;;;;34.90;17.33;;;5.30;99.90;;;;;;20985705;28;20103;-76
2021/11/13 09:41:15;;;;;;;47.25;21.88;;;5.30;99.90;;;;;;21001551;28;20027;-76
2021/11/13 09:51:16;;;;;;;44.13;19.42;;;5.30;99.90;;;;;;20982750;28;20199;-75
2021/11/13 10:01:18;;;;;;;53.00;22.00;;;5.30;99.90;;;;;;20981937;28;20119;-75
2021/11/13 10:11:25;;;;;;;59.42;22.73;;;5.40;99.90;;;;;;20998381;28;20399;-79
2021/11/13 10:21:29;;;;;;;64.85;25.55;;;5.40;99.90;;;;;;20980563;28;20033;-78
2021/11/13 10:31:33;;;;;;;67.60;24.05;;;5.60;99.90;;;;;;20961815;28;20372;-76
2021/11/13 10:42:05;;;;;;;67.30;24.60;;;5.80;99.90;;;;;;20912801;28;20090;-76
2021/11/13 10:52:08;;;;;;;69.53;24.35;;;5.80;99.90;;;;;;20909488;28;20110;-76
2021/11/13 11:02:15;;;;;;;67.88;26.10;;;5.90;99.90;;;;;;20897416;28;20479;-76
2021/11/13 11:12:19;;;;;;;75.72;27.17;;;6.00;99.90;;;;;;20874559;28;20080;-76
2021/11/13 11:22:25;;;;;;;79.97;28.20;;;6.00;99.90;;;;;;20874954;28;20044;-77
2021/11/13 11:32:29;;;;;;;96.40;30.38;;;6.10;99.90;;;;;;20874320;28;20040;-78
2021/11/13 11:42:30;;;;;;;81.63;30.13;;;6.30;99.90;;;;;;20855840;28;20039;-78
2021/11/13 11:52:32;;;;;;;84.37;29.97;;;6.30;99.90;;;;;;20854859;28;20424;-78
2021/11/13 12:02:42;;;;;;;86.70;28.33;;;6.40;99.90;;;;;;20872572;28;20056;-78
2021/11/13 12:13:05;;;;;;;90.47;31.25;;;6.40;99.90;;;;;;20853404;28;20139;-77
2021/11/13 12:23:14;;;;;;;75.45;26.38;;;6.50;99.90;;;;;;20871902;28;20033;-77
2021/11/13 12:33:27;;;;;;;78.18;27.33;;;6.60;99.90;;;;;;20878263;28;20395;-79
2021/11/13 12:43:47;;;;;;;70.70;28.13;;;6.70;99.90;;;;;;20870729;28;20037;-79
2021/11/13 12:53:54;;;;;;;66.35;25.85;;;6.80;99.90;;;;;;20887894;28;20478;-78
2021/11/13 13:04:00;;;;;;;67.97;24.67;;;6.80;99.90;;;;;;20886327;28;20037;-78
2021/11/13 13:14:00;;;;;;;50.00;21.88;;;6.80;99.90;;;;;;20886851;28;20021;-78
2021/11/13 13:24:22;;;;;;;51.00;21.67;;;6.60;99.90;;;;;;20885021;28;20055;-78
2021/11/13 13:34:23;;;;;;;49.70;22.13;;;6.60;99.90;;;;;;20884016;28;20102;-78
2021/11/13 13:44:24;;;;;;;;;;;6.80;99.90;;;;;;20864600;28;20044;-78
2021/11/13 13:54:27;;;;;;;48.03;21.10;;;6.80;99.90;;;;;;20881487;28;19921;-78
2021/11/13 14:04:31;;;;;;;58.53;23.20;;;6.80;99.90;;;;;;20864220;28;20503;-78
2021/11/13 14:14:32;;;;;;;49.70;22.10;;;6.90;99.90;;;;;;20862208;28;20510;-77
2021/11/13 14:24:33;;;;;;;47.53;20.80;;;6.90;99.90;;;;;;20878686;28;20029;-78
2021/11/13 14:34:34;;;;;;;46.17;21.38;;;7.00;99.90;;;;;;20880485;28;20033;-78
2021/11/13 14:44:38;;;;;;;47.28;20.05;;;7.10;99.90;;;;;;20869887;28;20033;-77
2021/11/13 14:54:54;;;;;;;43.85;20.13;;;7.10;99.90;;;;;;20906057;22;20055;-75
2021/11/13 15:04:56;;;;;;;45.38;20.20;;;7.20;99.90;;;;;;20877341;28;20036;-77
2021/11/13 15:15:02;;;;;;;43.78;20.65;;;7.10;99.90;;;;;;20876229;28;20399;-76
2021/11/13 15:25:23;;;;;;;56.55;24.40;;;7.00;99.90;;;;;;20875826;28;20033;-76
2021/11/13 15:35:26;;;;;;;55.42;23.48;;;7.00;99.90;;;;;;20873769;28;20051;-76
2021/11/13 15:45:29;;;;;;;74.30;27.52;;;6.80;99.90;;;;;;20872607;28;20040;-76
2021/11/13 15:55:31;;;;;;;82.47;30.15;;;6.80;99.90;;;;;;20894219;28;20068;-79
2021/11/13 16:05:35;;;;;;;75.78;28.77;;;6.70;99.90;;;;;;20886574;28;20041;-78
2021/11/13 16:15:36;;;;;;;72.90;27.50;;;6.70;99.90;;;;;;20923598;28;20553;-77
2021/11/13 16:25:37;;;;;;;;;;;6.80;99.90;;;;;;20920815;28;20029;-79
2021/11/13 16:35:39;;;;;;;80.43;27.95;;;6.90;99.90;;;;;;20873988;28;19917;-78
2021/11/13 16:45:43;;;;;;;68.93;26.83;;;6.90;99.90;;;;;;20898858;28;20064;-79
2021/11/13 16:55:46;;;;;;;79.70;27.60;;;6.80;99.90;;;;;;20893202;28;20562;-78
2021/11/13 17:05:47;;;;;;;59.17;22.45;;;6.90;99.90;;;;;;20867380;28;20549;-76
2021/11/13 17:15:48;;;;;;;50.30;23.73;;;6.80;99.90;;;;;;20869104;28;20068;-76
2021/11/13 17:25:49;;;;;;;77.13;30.67;;;6.90;99.90;;;;;;20883107;28;20123;-75
2021/11/13 17:35:50;;;;;;;;;;;6.90;99.90;;;;;;20883576;28;20498;-76
2021/11/13 17:45:51;;;;;;;74.70;28.07;;;6.80;99.90;;;;;;20884946;28;19913;-76
2021/11/13 17:55:53;;;;;;;56.88;23.60;;;6.70;99.90;;;;;;20883817;28;20365;-77
2021/11/13 18:05:56;;;;;;;48.10;22.35;;;6.60;99.90;;;;;;20880404;28;20112;-76
2021/11/13 18:15:57;;;;;;;55.83;23.10;;;6.70;99.90;;;;;;20861274;28;20703;-76
2021/11/13 18:25:58;;;;;;;63.30;24.95;;;6.80;99.90;;;;;;20879180;28;20132;-77
2021/11/13 18:35:59;;;;;;;59.87;23.60;;;6.90;99.90;;;;;;20878150;28;21334;-77
2021/11/13 18:46:00;;;;;;;48.80;21.93;;;6.80;99.90;;;;;;20874913;28;20267;-76
2021/11/13 18:56:01;;;;;;;55.37;24.33;;;6.90;99.90;;;;;;20876724;28;20032;-77
2021/11/13 19:06:02;;;;;;;59.23;23.77;;;6.90;99.90;;;;;;20877585;28;20047;-75
2021/11/13 19:16:03;;;;;;;64.35;23.35;;;6.90;99.90;;;;;;20870924;28;20376;-76
2021/11/13 19:26:04;;;;;;;78.57;26.73;;;6.90;99.90;;;;;;20885712;28;20025;-76
2021/11/13 19:36:05;;;;;;;77.55;26.85;;;6.80;99.90;;;;;;20904769;28;20040;-76
2021/11/13 19:46:06;;;;;;;86.23;29.80;;;6.80;99.90;;;;;;20914095;28;20028;-77
2021/11/13 19:56:07;;;;;;;81.18;26.42;;;6.70;99.90;;;;;;20847139;28;20391;-76
2021/11/13 20:06:09;;;;;;;73.37;25.60;;;6.60;99.90;;;;;;20823073;28;20171;-76
2021/11/13 20:16:10;;;;;;;59.13;22.17;;;6.60;99.90;;;;;;20824187;28;20040;-77
2021/11/13 20:26:12;;;;;;;49.07;22.00;;;6.50;99.90;;;;;;20832158;28;20485;-76
2021/11/13 20:36:18;;;;;;;51.67;22.63;;;6.40;99.90;;;;;;20883196;28;20443;-76
2021/11/13 20:46:18;;;;;;;59.80;21.88;;;6.40;99.90;;;;;;20866916;28;20040;-76
2021/11/13 20:56:19;;;;;;;71.80;26.50;;;6.10;99.90;;;;;;20915028;28;20033;-77
2021/11/13 21:06:21;;;;;;;53.37;21.97;;;6.20;99.90;;;;;;20874099;28;20482;-77
2021/11/13 21:16:22;;;;;;;108.88;29.13;;;6.30;99.90;;;;;;20873365;28;20028;-77
2021/11/13 21:26:24;;;;;;;68.00;29.50;;;6.40;99.90;;;;;;20896387;28;20035;-77
2021/11/13 21:36:24;;;;;;;;;;;6.50;99.90;;;;;;20922169;28;20525;-75
2021/11/13 21:46:26;;;;;;;68.72;26.85;;;6.50;99.90;;;;;;20917791;28;19913;-77
2021/11/13 21:56:27;;;;;;;54.67;26.10;;;6.50;99.90;;;;;;20916332;28;20025;-77
2021/11/13 22:06:28;;;;;;;62.67;26.15;;;6.50;99.90;;;;;;20922479;28;20033;-77
2021/11/13 22:16:29;;;;;;;60.53;24.50;;;6.60;99.90;;;;;;20888090;28;20398;-77
2021/11/13 22:26:30;;;;;;;46.30;23.33;;;6.60;99.90;;;;;;20900992;28;20071;-76
2021/11/13 22:36:31;;;;;;;47.73;21.03;;;6.70;99.90;;;;;;20915720;28;20509;-77
2021/11/13 22:46:33;;;;;;;40.83;19.53;;;6.70;99.90;;;;;;20918491;28;20283;-77
2021/11/13 22:56:34;;;;;;;48.53;24.48;;;6.80;99.90;;;;;;20919663;28;20029;-78
2021/11/13 23:06:35;;;;;;;52.97;22.55;;;6.80;99.90;;;;;;20940333;28;20605;-78
2021/11/13 23:16:41;;;;;;;49.75;24.02;;;6.80;99.90;;;;;;20930584;28;20395;-77
2021/11/13 23:26:44;;;;;;;61.17;25.17;;;6.80;99.90;;;;;;20928415;28;20032;-78
2021/11/13 23:36:45;;;;;;;60.45;26.80;;;6.80;99.90;;;;;;20912708;28;20036;-77
2021/11/13 23:46:46;;;;;;;66.90;25.33;;;6.90;99.90;;;;;;20868467;28;20037;-76
2021/11/13 23:56:47;;;;;;;63.70;25.50;;;6.90;99.90;;;;;;20873002;28;20055;-76
